sensor_id;sensor_type;location;lat;lon;timestamp;P1;durP1;ratioP1;P2;durP2;ratioP2
54452;SDS011;40363;52.270;10.546;2023-05-07T00:01:12;29.60;;;14.68;;
54452;SDS011;40363;52.270;10.546;2023-05-07T00:03:38;23.55;;;14.05;;
54452;SDS011;40363;52.270;10.546;2023-05-07T00:06:06;27.55;;;15.73;;
54452;SDS011;40363;52.270;10.546;2023-05-07T00:08:33;30.90;;;15.30;;
54452;SDS011;40363;52.270;10.546;2023-05-07T00:11:00;31.13;;;14.48;;
54452;SDS011;40363;52.270;10.546;2023-05-07T00:13:26;25.50;;;14.07;;
54452;SDS011;40363;52.270;10.546;2023-05-07T00:15:55;24.73;;;13.63;;
54452;SDS011;40363;52.270;10.546;2023-05-07T00:18:22;28.63;;;13.52;;
54452;SDS011;40363;52.270;10.546;2023-05-07T00:20:48;27.02;;;15.63;;
54452;SDS011;40363;52.270;10.546;2023-05-07T00:23:16;26.90;;;13.80;;
54452;SDS011;40363;52.270;10.546;2023-05-07T00:25:43;25.45;;;15.20;;
54452;SDS011;40363;52.270;10.546;2023-05-07T00:28:10;29.40;;;15.27;;
54452;SDS011;40363;52.270;10.546;2023-05-07T00:30:36;27.33;;;14.80;;
54452;SDS011;40363;52.270;10.546;2023-05-07T00:33:03;19.20;;;11.52;;
54452;SDS011;40363;52.270;10.546;2023-05-07T00:35:29;24.95;;;13.45;;
54452;SDS011;40363;52.270;10.546;2023-05-07T00:37:56;22.70;;;12.07;;
54452;SDS011;40363;52.270;10.546;2023-05-07T00:40:24;17.55;;;9.75;;
54452;SDS011;40363;52.270;10.546;2023-05-07T00:42:50;15.15;;;8.73;;
54452;SDS011;40363;52.270;10.546;2023-05-07T00:45:22;17.15;;;9.30;;
54452;SDS011;40363;52.270;10.546;2023-05-07T00:47:53;18.38;;;9.82;;
54452;SDS011;40363;52.270;10.546;2023-05-07T00:50:20;15.00;;;9.02;;
54452;SDS011;40363;52.270;10.546;2023-05-07T00:52:47;18.10;;;9.70;;
54452;SDS011;40363;52.270;10.546;2023-05-07T00:55:14;22.33;;;11.50;;
54452;SDS011;40363;52.270;10.546;2023-05-07T00:57:42;22.15;;;11.40;;
54452;SDS011;40363;52.270;10.546;2023-05-07T01:00:11;17.95;;;10.65;;
54452;SDS011;40363;52.270;10.546;2023-05-07T01:02:38;18.65;;;10.45;;
54452;SDS011;40363;52.270;10.546;2023-05-07T01:05:05;23.35;;;11.77;;
54452;SDS011;40363;52.270;10.546;2023-05-07T01:07:35;20.58;;;11.48;;
54452;SDS011;40363;52.270;10.546;2023-05-07T01:10:03;21.63;;;10.18;;
54452;SDS011;40363;52.270;10.546;2023-05-07T01:12:32;21.75;;;11.25;;
54452;SDS011;40363;52.270;10.546;2023-05-07T01:15:00;22.17;;;10.85;;
54452;SDS011;40363;52.270;10.546;2023-05-07T01:17:28;18.20;;;10.02;;
54452;SDS011;40363;52.270;10.546;2023-05-07T01:19:54;18.83;;;10.18;;
54452;SDS011;40363;52.270;10.546;2023-05-07T01:22:29;22.65;;;11.65;;
54452;SDS011;40363;52.270;10.546;2023-05-07T01:24:57;19.55;;;10.10;;
54452;SDS011;40363;52.270;10.546;2023-05-07T01:27:24;17.13;;;8.70;;
54452;SDS011;40363;52.270;10.546;2023-05-07T01:29:51;19.55;;;10.52;;
54452;SDS011;40363;52.270;10.546;2023-05-07T01:32:18;17.17;;;9.70;;
54452;SDS011;40363;52.270;10.546;2023-05-07T01:34:47;22.30;;;9.68;;
54452;SDS011;40363;52.270;10.546;2023-05-07T01:37:16;19.95;;;9.07;;
54452;SDS011;40363;52.270;10.546;2023-05-07T01:39:44;21.58;;;9.38;;
54452;SDS011;40363;52.270;10.546;2023-05-07T01:42:11;18.15;;;9.38;;
54452;SDS011;40363;52.270;10.546;2023-05-07T01:44:38;18.23;;;9.25;;
54452;SDS011;40363;52.270;10.546;2023-05-07T01:47:05;16.38;;;9.63;;
54452;SDS011;40363;52.270;10.546;2023-05-07T01:49:32;15.35;;;9.00;;
54452;SDS011;40363;52.270;10.546;2023-05-07T01:51:59;16.70;;;9.10;;
54452;SDS011;40363;52.270;10.546;2023-05-07T01:54:26;14.65;;;7.90;;
54452;SDS011;40363;52.270;10.546;2023-05-07T01:56:55;12.25;;;8.10;;
54452;SDS011;40363;52.270;10.546;2023-05-07T01:59:22;14.48;;;8.20;;
54452;SDS011;40363;52.270;10.546;2023-05-07T02:01:50;15.05;;;8.43;;
54452;SDS011;40363;52.270;10.546;2023-05-07T02:04:16;14.90;;;8.68;;
54452;SDS011;40363;52.270;10.546;2023-05-07T02:06:43;14.73;;;9.07;;
54452;SDS011;40363;52.270;10.546;2023-05-07T02:09:10;16.70;;;8.52;;
54452;SDS011;40363;52.270;10.546;2023-05-07T02:11:37;17.77;;;8.38;;
54452;SDS011;40363;52.270;10.546;2023-05-07T02:14:05;18.02;;;8.75;;
54452;SDS011;40363;52.270;10.546;2023-05-07T02:16:31;17.75;;;7.80;;
54452;SDS011;40363;52.270;10.546;2023-05-07T02:18:58;15.82;;;8.65;;
54452;SDS011;40363;52.270;10.546;2023-05-07T02:21:24;14.45;;;9.10;;
54452;SDS011;40363;52.270;10.546;2023-05-07T02:23:51;13.65;;;7.85;;
54452;SDS011;40363;52.270;10.546;2023-05-07T02:26:17;15.18;;;8.02;;
54452;SDS011;40363;52.270;10.546;2023-05-07T02:28:44;15.73;;;8.05;;
54452;SDS011;40363;52.270;10.546;2023-05-07T02:31:12;15.52;;;7.60;;
54452;SDS011;40363;52.270;10.546;2023-05-07T02:33:39;12.75;;;7.97;;
54452;SDS011;40363;52.270;10.546;2023-05-07T02:36:06;15.25;;;7.82;;
54452;SDS011;40363;52.270;10.546;2023-05-07T02:38:33;15.07;;;8.32;;
54452;SDS011;40363;52.270;10.546;2023-05-07T02:41:00;16.13;;;9.45;;
54452;SDS011;40363;52.270;10.546;2023-05-07T02:43:26;16.35;;;9.55;;
54452;SDS011;40363;52.270;10.546;2023-05-07T02:46:00;16.73;;;8.68;;
54452;SDS011;40363;52.270;10.546;2023-05-07T02:48:28;14.30;;;8.55;;
54452;SDS011;40363;52.270;10.546;2023-05-07T02:50:55;16.05;;;8.55;;
54452;SDS011;40363;52.270;10.546;2023-05-07T02:53:21;12.77;;;7.97;;
54452;SDS011;40363;52.270;10.546;2023-05-07T02:55:50;17.75;;;8.25;;
54452;SDS011;40363;52.270;10.546;2023-05-07T02:58:17;12.48;;;6.70;;
54452;SDS011;40363;52.270;10.546;2023-05-07T03:00:44;14.38;;;7.55;;
54452;SDS011;40363;52.270;10.546;2023-05-07T03:03:11;12.57;;;6.47;;
54452;SDS011;40363;52.270;10.546;2023-05-07T03:05:39;13.68;;;7.55;;
54452;SDS011;40363;52.270;10.546;2023-05-07T03:08:06;19.40;;;7.75;;
54452;SDS011;40363;52.270;10.546;2023-05-07T03:10:32;12.68;;;8.02;;
54452;SDS011;40363;52.270;10.546;2023-05-07T03:12:59;12.88;;;7.63;;
54452;SDS011;40363;52.270;10.546;2023-05-07T03:15:26;13.95;;;8.18;;
54452;SDS011;40363;52.270;10.546;2023-05-07T03:17:53;12.02;;;6.95;;
54452;SDS011;40363;52.270;10.546;2023-05-07T03:20:20;12.88;;;8.30;;
54452;SDS011;40363;52.270;10.546;2023-05-07T03:22:48;14.05;;;6.90;;
54452;SDS011;40363;52.270;10.546;2023-05-07T03:25:14;12.52;;;7.70;;
54452;SDS011;40363;52.270;10.546;2023-05-07T03:27:41;18.13;;;8.00;;
54452;SDS011;40363;52.270;10.546;2023-05-07T03:30:08;18.23;;;8.77;;
54452;SDS011;40363;52.270;10.546;2023-05-07T03:32:35;13.90;;;7.95;;
54452;SDS011;40363;52.270;10.546;2023-05-07T03:35:02;14.32;;;8.13;;
54452;SDS011;40363;52.270;10.546;2023-05-07T03:37:29;14.50;;;8.35;;
54452;SDS011;40363;52.270;10.546;2023-05-07T03:39:57;13.45;;;7.72;;
54452;SDS011;40363;52.270;10.546;2023-05-07T03:42:23;18.15;;;7.90;;
54452;SDS011;40363;52.270;10.546;2023-05-07T03:44:50;11.38;;;7.25;;
54452;SDS011;40363;52.270;10.546;2023-05-07T03:47:17;12.52;;;7.05;;
54452;SDS011;40363;52.270;10.546;2023-05-07T03:49:43;14.40;;;7.70;;
54452;SDS011;40363;52.270;10.546;2023-05-07T03:52:10;14.68;;;7.50;;
54452;SDS011;40363;52.270;10.546;2023-05-07T03:54:36;13.70;;;8.38;;
54452;SDS011;40363;52.270;10.546;2023-05-07T03:57:04;15.57;;;8.57;;
54452;SDS011;40363;52.270;10.546;2023-05-07T03:59:31;15.02;;;8.35;;
54452;SDS011;40363;52.270;10.546;2023-05-07T04:01:58;12.30;;;7.53;;
54452;SDS011;40363;52.270;10.546;2023-05-07T04:04:24;11.07;;;6.47;;
54452;SDS011;40363;52.270;10.546;2023-05-07T04:06:51;10.48;;;6.60;;
54452;SDS011;40363;52.270;10.546;2023-05-07T04:09:18;11.27;;;7.57;;
54452;SDS011;40363;52.270;10.546;2023-05-07T04:11:45;9.15;;;6.70;;
54452;SDS011;40363;52.270;10.546;2023-05-07T04:14:12;12.18;;;8.25;;
54452;SDS011;40363;52.270;10.546;2023-05-07T04:16:39;11.23;;;6.97;;
54452;SDS011;40363;52.270;10.546;2023-05-07T04:19:06;9.90;;;6.40;;
54452;SDS011;40363;52.270;10.546;2023-05-07T04:21:32;12.95;;;6.88;;
54452;SDS011;40363;52.270;10.546;2023-05-07T04:23:59;12.55;;;7.38;;
54452;SDS011;40363;52.270;10.546;2023-05-07T04:26:25;10.45;;;7.18;;
54452;SDS011;40363;52.270;10.546;2023-05-07T04:28:53;9.35;;;5.90;;
54452;SDS011;40363;52.270;10.546;2023-05-07T04:31:21;10.43;;;5.95;;
54452;SDS011;40363;52.270;10.546;2023-05-07T04:33:48;10.30;;;7.03;;
54452;SDS011;40363;52.270;10.546;2023-05-07T04:36:15;9.77;;;6.40;;
54452;SDS011;40363;52.270;10.546;2023-05-07T04:38:42;9.68;;;5.65;;
54452;SDS011;40363;52.270;10.546;2023-05-07T04:41:09;10.88;;;6.88;;
54452;SDS011;40363;52.270;10.546;2023-05-07T04:43:36;10.93;;;7.60;;
54452;SDS011;40363;52.270;10.546;2023-05-07T04:46:02;11.30;;;6.65;;
54452;SDS011;40363;52.270;10.546;2023-05-07T04:48:31;11.48;;;6.95;;
54452;SDS011;40363;52.270;10.546;2023-05-07T04:50:57;10.93;;;8.05;;
54452;SDS011;40363;52.270;10.546;2023-05-07T04:53:24;10.88;;;6.95;;
54452;SDS011;40363;52.270;10.546;2023-05-07T04:55:54;11.90;;;7.60;;
54452;SDS011;40363;52.270;10.546;2023-05-07T04:58:22;11.35;;;7.13;;
54452;SDS011;40363;52.270;10.546;2023-05-07T05:00:49;9.63;;;6.45;;
54452;SDS011;40363;52.270;10.546;2023-05-07T05:03:16;9.68;;;6.78;;
54452;SDS011;40363;52.270;10.546;2023-05-07T05:05:43;7.28;;;5.18;;
54452;SDS011;40363;52.270;10.546;2023-05-07T05:08:10;9.90;;;5.63;;
54452;SDS011;40363;52.270;10.546;2023-05-07T05:10:37;11.95;;;6.20;;
54452;SDS011;40363;52.270;10.546;2023-05-07T05:13:03;9.35;;;5.78;;
54452;SDS011;40363;52.270;10.546;2023-05-07T05:15:30;8.90;;;5.43;;
54452;SDS011;40363;52.270;10.546;2023-05-07T05:17:56;7.93;;;4.93;;
54452;SDS011;40363;52.270;10.546;2023-05-07T05:20:23;8.85;;;5.75;;
54452;SDS011;40363;52.270;10.546;2023-05-07T05:22:51;9.50;;;6.18;;
54452;SDS011;40363;52.270;10.546;2023-05-07T05:25:17;9.82;;;6.10;;
54452;SDS011;40363;52.270;10.546;2023-05-07T05:27:44;9.77;;;6.03;;
54452;SDS011;40363;52.270;10.546;2023-05-07T05:30:11;9.32;;;5.78;;
54452;SDS011;40363;52.270;10.546;2023-05-07T05:32:38;10.13;;;6.10;;
54452;SDS011;40363;52.270;10.546;2023-05-07T05:35:05;10.57;;;6.15;;
54452;SDS011;40363;52.270;10.546;2023-05-07T05:37:32;10.60;;;5.97;;
54452;SDS011;40363;52.270;10.546;2023-05-07T05:40:00;8.82;;;5.75;;
54452;SDS011;40363;52.270;10.546;2023-05-07T05:42:26;10.23;;;6.38;;
54452;SDS011;40363;52.270;10.546;2023-05-07T05:44:53;11.13;;;8.15;;
54452;SDS011;40363;52.270;10.546;2023-05-07T05:47:19;11.82;;;6.65;;
54452;SDS011;40363;52.270;10.546;2023-05-07T05:49:46;8.75;;;6.28;;
54452;SDS011;40363;52.270;10.546;2023-05-07T05:52:12;11.52;;;7.43;;
54452;SDS011;40363;52.270;10.546;2023-05-07T05:54:40;12.00;;;7.72;;
54452;SDS011;40363;52.270;10.546;2023-05-07T05:57:07;15.35;;;8.25;;
54452;SDS011;40363;52.270;10.546;2023-05-07T05:59:34;9.20;;;6.32;;
54452;SDS011;40363;52.270;10.546;2023-05-07T06:02:01;10.65;;;7.75;;
54452;SDS011;40363;52.270;10.546;2023-05-07T06:04:28;14.98;;;8.40;;
54452;SDS011;40363;52.270;10.546;2023-05-07T06:06:54;9.75;;;7.35;;
54452;SDS011;40363;52.270;10.546;2023-05-07T06:09:21;14.68;;;8.90;;
54452;SDS011;40363;52.270;10.546;2023-05-07T06:11:48;11.85;;;8.20;;
54452;SDS011;40363;52.270;10.546;2023-05-07T06:14:16;11.35;;;7.78;;
54452;SDS011;40363;52.270;10.546;2023-05-07T06:16:43;11.32;;;7.97;;
54452;SDS011;40363;52.270;10.546;2023-05-07T06:19:10;12.07;;;8.38;;
54452;SDS011;40363;52.270;10.546;2023-05-07T06:21:37;13.38;;;7.93;;
54452;SDS011;40363;52.270;10.546;2023-05-07T06:24:04;11.13;;;7.60;;
54452;SDS011;40363;52.270;10.546;2023-05-07T06:26:31;12.43;;;7.13;;
54452;SDS011;40363;52.270;10.546;2023-05-07T06:28:58;14.43;;;7.65;;
54452;SDS011;40363;52.270;10.546;2023-05-07T06:31:28;11.77;;;7.88;;
54452;SDS011;40363;52.270;10.546;2023-05-07T06:33:56;10.55;;;6.63;;
54452;SDS011;40363;52.270;10.546;2023-05-07T06:36:24;12.02;;;6.88;;
54452;SDS011;40363;52.270;10.546;2023-05-07T06:38:51;10.30;;;6.70;;
54452;SDS011;40363;52.270;10.546;2023-05-07T06:41:18;11.07;;;6.07;;
54452;SDS011;40363;52.270;10.546;2023-05-07T06:43:45;13.57;;;7.30;;
54452;SDS011;40363;52.270;10.546;2023-05-07T06:46:12;8.07;;;5.28;;
54452;SDS011;40363;52.270;10.546;2023-05-07T06:48:40;7.22;;;5.15;;
54452;SDS011;40363;52.270;10.546;2023-05-07T06:51:06;7.78;;;5.47;;
54452;SDS011;40363;52.270;10.546;2023-05-07T06:53:33;8.55;;;5.57;;
54452;SDS011;40363;52.270;10.546;2023-05-07T06:56:01;10.85;;;6.45;;
54452;SDS011;40363;52.270;10.546;2023-05-07T06:58:27;8.73;;;4.97;;
54452;SDS011;40363;52.270;10.546;2023-05-07T07:00:54;6.68;;;4.68;;
54452;SDS011;40363;52.270;10.546;2023-05-07T07:03:21;7.30;;;5.18;;
54452;SDS011;40363;52.270;10.546;2023-05-07T07:05:48;11.38;;;5.63;;
54452;SDS011;40363;52.270;10.546;2023-05-07T07:08:17;8.07;;;4.88;;
54452;SDS011;40363;52.270;10.546;2023-05-07T07:10:46;9.75;;;4.97;;
54452;SDS011;40363;52.270;10.546;2023-05-07T07:13:12;8.35;;;5.30;;
54452;SDS011;40363;52.270;10.546;2023-05-07T07:15:39;9.40;;;6.03;;
54452;SDS011;40363;52.270;10.546;2023-05-07T07:18:06;8.88;;;6.03;;
54452;SDS011;40363;52.270;10.546;2023-05-07T07:20:33;11.05;;;5.35;;
54452;SDS011;40363;52.270;10.546;2023-05-07T07:23:01;12.20;;;5.88;;
54452;SDS011;40363;52.270;10.546;2023-05-07T07:25:27;10.52;;;6.90;;
54452;SDS011;40363;52.270;10.546;2023-05-07T07:27:54;10.15;;;6.50;;
54452;SDS011;40363;52.270;10.546;2023-05-07T07:30:20;10.10;;;6.53;;
54452;SDS011;40363;52.270;10.546;2023-05-07T07:32:47;9.98;;;6.30;;
54452;SDS011;40363;52.270;10.546;2023-05-07T07:35:14;11.98;;;6.50;;
54452;SDS011;40363;52.270;10.546;2023-05-07T07:37:41;10.43;;;6.68;;
54452;SDS011;40363;52.270;10.546;2023-05-07T07:40:09;10.43;;;6.47;;
54452;SDS011;40363;52.270;10.546;2023-05-07T07:42:37;10.80;;;6.70;;
54452;SDS011;40363;52.270;10.546;2023-05-07T07:45:04;10.80;;;6.10;;
54452;SDS011;40363;52.270;10.546;2023-05-07T07:47:32;9.25;;;6.38;;
54452;SDS011;40363;52.270;10.546;2023-05-07T07:49:58;9.05;;;4.97;;
54452;SDS011;40363;52.270;10.546;2023-05-07T07:52:25;10.00;;;5.53;;
54452;SDS011;40363;52.270;10.546;2023-05-07T07:54:52;10.70;;;6.38;;
54452;SDS011;40363;52.270;10.546;2023-05-07T07:57:20;7.97;;;6.03;;
54452;SDS011;40363;52.270;10.546;2023-05-07T07:59:46;10.35;;;6.22;;
54452;SDS011;40363;52.270;10.546;2023-05-07T08:02:13;11.63;;;6.32;;
54452;SDS011;40363;52.270;10.546;2023-05-07T08:04:39;9.93;;;6.65;;
54452;SDS011;40363;52.270;10.546;2023-05-07T08:07:08;8.25;;;6.07;;
54452;SDS011;40363;52.270;10.546;2023-05-07T08:09:35;9.15;;;6.10;;
54452;SDS011;40363;52.270;10.546;2023-05-07T08:12:01;10.02;;;6.88;;
54452;SDS011;40363;52.270;10.546;2023-05-07T08:14:30;9.63;;;6.75;;
54452;SDS011;40363;52.270;10.546;2023-05-07T08:16:57;8.88;;;5.97;;
54452;SDS011;40363;52.270;10.546;2023-05-07T08:19:23;8.93;;;6.40;;
54452;SDS011;40363;52.270;10.546;2023-05-07T08:21:50;11.80;;;7.47;;
54452;SDS011;40363;52.270;10.546;2023-05-07T08:24:17;9.93;;;7.05;;
54452;SDS011;40363;52.270;10.546;2023-05-07T08:26:43;10.07;;;6.80;;
54452;SDS011;40363;52.270;10.546;2023-05-07T08:29:10;10.30;;;6.80;;
54452;SDS011;40363;52.270;10.546;2023-05-07T08:31:38;11.57;;;7.45;;
54452;SDS011;40363;52.270;10.546;2023-05-07T08:34:05;11.95;;;7.57;;
54452;SDS011;40363;52.270;10.546;2023-05-07T08:36:32;11.38;;;7.63;;
54452;SDS011;40363;52.270;10.546;2023-05-07T08:38:59;10.15;;;6.97;;
54452;SDS011;40363;52.270;10.546;2023-05-07T08:41:26;11.18;;;7.32;;
54452;SDS011;40363;52.270;10.546;2023-05-07T08:43:52;10.57;;;7.35;;
54452;SDS011;40363;52.270;10.546;2023-05-07T08:46:23;10.57;;;7.75;;
54452;SDS011;40363;52.270;10.546;2023-05-07T08:48:53;11.05;;;6.85;;
54452;SDS011;40363;52.270;10.546;2023-05-07T08:51:20;11.82;;;7.60;;
54452;SDS011;40363;52.270;10.546;2023-05-07T08:53:48;8.48;;;6.35;;
54452;SDS011;40363;52.270;10.546;2023-05-07T08:56:16;12.38;;;7.85;;
54452;SDS011;40363;52.270;10.546;2023-05-07T08:58:43;10.57;;;6.72;;
54452;SDS011;40363;52.270;10.546;2023-05-07T09:01:12;8.68;;;6.35;;
54452;SDS011;40363;52.270;10.546;2023-05-07T09:03:40;9.45;;;6.63;;
54452;SDS011;40363;52.270;10.546;2023-05-07T09:06:09;10.45;;;6.88;;
54452;SDS011;40363;52.270;10.546;2023-05-07T09:08:36;9.70;;;7.25;;
54452;SDS011;40363;52.270;10.546;2023-05-07T09:11:03;8.93;;;6.72;;
54452;SDS011;40363;52.270;10.546;2023-05-07T09:13:30;8.93;;;7.35;;
54452;SDS011;40363;52.270;10.546;2023-05-07T09:15:57;9.48;;;6.80;;
54452;SDS011;40363;52.270;10.546;2023-05-07T09:18:24;9.45;;;6.47;;
54452;SDS011;40363;52.270;10.546;2023-05-07T09:23:34;7.95;;;6.32;;
54452;SDS011;40363;52.270;10.546;2023-05-07T09:26:00;9.35;;;6.50;;
54452;SDS011;40363;52.270;10.546;2023-05-07T09:28:27;10.45;;;6.72;;
54452;SDS011;40363;52.270;10.546;2023-05-07T09:30:53;10.55;;;6.25;;
54452;SDS011;40363;52.270;10.546;2023-05-07T09:33:22;7.75;;;5.65;;
54452;SDS011;40363;52.270;10.546;2023-05-07T09:35:53;8.00;;;5.68;;
54452;SDS011;40363;52.270;10.546;2023-05-07T09:38:20;7.60;;;5.60;;
54452;SDS011;40363;52.270;10.546;2023-05-07T09:40:52;6.95;;;5.28;;
54452;SDS011;40363;52.270;10.546;2023-05-07T09:43:31;9.10;;;5.30;;
54452;SDS011;40363;52.270;10.546;2023-05-07T09:45:58;8.18;;;5.05;;
54452;SDS011;40363;52.270;10.546;2023-05-07T09:48:26;6.60;;;4.82;;
54452;SDS011;40363;52.270;10.546;2023-05-07T09:50:55;7.10;;;4.35;;
54452;SDS011;40363;52.270;10.546;2023-05-07T09:53:23;6.55;;;5.50;;
54452;SDS011;40363;52.270;10.546;2023-05-07T09:55:53;7.13;;;5.10;;
54452;SDS011;40363;52.270;10.546;2023-05-07T09:58:20;7.15;;;5.45;;
54452;SDS011;40363;52.270;10.546;2023-05-07T10:00:49;6.35;;;4.30;;
54452;SDS011;40363;52.270;10.546;2023-05-07T10:03:16;5.93;;;4.25;;
54452;SDS011;40363;52.270;10.546;2023-05-07T10:05:45;6.43;;;3.80;;
54452;SDS011;40363;52.270;10.546;2023-05-07T10:08:13;7.07;;;4.43;;
54452;SDS011;40363;52.270;10.546;2023-05-07T10:10:41;4.32;;;3.53;;
54452;SDS011;40363;52.270;10.546;2023-05-07T10:13:10;6.13;;;4.82;;
54452;SDS011;40363;52.270;10.546;2023-05-07T10:15:37;4.93;;;3.58;;
54452;SDS011;40363;52.270;10.546;2023-05-07T10:18:04;5.97;;;3.90;;
54452;SDS011;40363;52.270;10.546;2023-05-07T10:20:32;6.72;;;5.25;;
54452;SDS011;40363;52.270;10.546;2023-05-07T10:23:02;7.18;;;4.68;;
54452;SDS011;40363;52.270;10.546;2023-05-07T10:25:31;7.63;;;5.05;;
54452;SDS011;40363;52.270;10.546;2023-05-07T10:27:59;7.00;;;5.28;;
54452;SDS011;40363;52.270;10.546;2023-05-07T10:30:33;7.35;;;4.80;;
54452;SDS011;40363;52.270;10.546;2023-05-07T10:33:10;7.30;;;4.90;;
54452;SDS011;40363;52.270;10.546;2023-05-07T10:35:40;7.45;;;4.97;;
54452;SDS011;40363;52.270;10.546;2023-05-07T10:38:09;6.93;;;5.22;;
54452;SDS011;40363;52.270;10.546;2023-05-07T10:40:35;6.13;;;5.10;;
54452;SDS011;40363;52.270;10.546;2023-05-07T10:43:03;6.97;;;4.85;;
54452;SDS011;40363;52.270;10.546;2023-05-07T10:45:31;6.03;;;4.65;;
54452;SDS011;40363;52.270;10.546;2023-05-07T10:48:09;7.68;;;5.40;;
54452;SDS011;40363;52.270;10.546;2023-05-07T10:50:38;7.82;;;4.70;;
54452;SDS011;40363;52.270;10.546;2023-05-07T10:53:20;7.15;;;4.78;;
54452;SDS011;40363;52.270;10.546;2023-05-07T10:58:56;7.40;;;4.13;;
54452;SDS011;40363;52.270;10.546;2023-05-07T11:01:51;7.38;;;5.03;;
54452;SDS011;40363;52.270;10.546;2023-05-07T11:04:21;4.40;;;3.60;;
54452;SDS011;40363;52.270;10.546;2023-05-07T11:07:24;5.22;;;4.05;;
54452;SDS011;40363;52.270;10.546;2023-05-07T11:09:55;4.13;;;3.55;;
54452;SDS011;40363;52.270;10.546;2023-05-07T11:15:38;5.97;;;3.85;;
54452;SDS011;40363;52.270;10.546;2023-05-07T11:18:08;4.00;;;3.38;;
54452;SDS011;40363;52.270;10.546;2023-05-07T11:26:42;5.75;;;3.88;;
54452;SDS011;40363;52.270;10.546;2023-05-07T11:29:11;4.53;;;3.20;;
54452;SDS011;40363;52.270;10.546;2023-05-07T11:31:38;4.10;;;3.38;;
54452;SDS011;40363;52.270;10.546;2023-05-07T11:34:07;4.65;;;3.00;;
54452;SDS011;40363;52.270;10.546;2023-05-07T11:36:34;6.05;;;3.97;;
54452;SDS011;40363;52.270;10.546;2023-05-07T11:39:02;3.80;;;2.97;;
54452;SDS011;40363;52.270;10.546;2023-05-07T11:41:34;4.53;;;3.33;;
54452;SDS011;40363;52.270;10.546;2023-05-07T11:44:02;5.05;;;3.95;;
54452;SDS011;40363;52.270;10.546;2023-05-07T11:46:29;5.13;;;4.22;;
54452;SDS011;40363;52.270;10.546;2023-05-07T11:48:56;6.65;;;4.18;;
54452;SDS011;40363;52.270;10.546;2023-05-07T11:51:25;6.30;;;4.20;;
54452;SDS011;40363;52.270;10.546;2023-05-07T11:53:54;4.75;;;3.25;;
54452;SDS011;40363;52.270;10.546;2023-05-07T11:56:21;6.28;;;3.80;;
54452;SDS011;40363;52.270;10.546;2023-05-07T11:58:48;5.63;;;3.88;;
54452;SDS011;40363;52.270;10.546;2023-05-07T12:01:17;4.38;;;3.90;;
54452;SDS011;40363;52.270;10.546;2023-05-07T12:03:44;6.03;;;4.43;;
54452;SDS011;40363;52.270;10.546;2023-05-07T12:06:11;6.43;;;4.32;;
54452;SDS011;40363;52.270;10.546;2023-05-07T12:08:40;5.78;;;4.22;;
54452;SDS011;40363;52.270;10.546;2023-05-07T12:11:08;6.45;;;3.80;;
54452;SDS011;40363;52.270;10.546;2023-05-07T12:13:36;8.50;;;4.50;;
54452;SDS011;40363;52.270;10.546;2023-05-07T12:16:03;5.28;;;4.55;;
54452;SDS011;40363;52.270;10.546;2023-05-07T12:18:31;5.97;;;4.25;;
54452;SDS011;40363;52.270;10.546;2023-05-07T12:20:59;7.70;;;4.93;;
54452;SDS011;40363;52.270;10.546;2023-05-07T12:23:26;6.57;;;4.90;;
54452;SDS011;40363;52.270;10.546;2023-05-07T12:25:54;6.95;;;4.50;;
54452;SDS011;40363;52.270;10.546;2023-05-07T12:28:21;8.05;;;4.95;;
54452;SDS011;40363;52.270;10.546;2023-05-07T12:30:48;7.90;;;5.03;;
54452;SDS011;40363;52.270;10.546;2023-05-07T12:33:16;6.43;;;4.35;;
54452;SDS011;40363;52.270;10.546;2023-05-07T12:35:46;6.40;;;5.07;;
54452;SDS011;40363;52.270;10.546;2023-05-07T12:38:14;8.40;;;5.53;;
54452;SDS011;40363;52.270;10.546;2023-05-07T12:40:42;9.77;;;5.25;;
54452;SDS011;40363;52.270;10.546;2023-05-07T12:43:16;7.28;;;4.57;;
54452;SDS011;40363;52.270;10.546;2023-05-07T12:45:43;5.88;;;4.22;;
54452;SDS011;40363;52.270;10.546;2023-05-07T12:48:11;4.93;;;3.70;;
54452;SDS011;40363;52.270;10.546;2023-05-07T12:50:38;5.35;;;4.10;;
54452;SDS011;40363;52.270;10.546;2023-05-07T12:53:05;7.35;;;3.90;;
54452;SDS011;40363;52.270;10.546;2023-05-07T12:55:39;6.03;;;3.95;;
54452;SDS011;40363;52.270;10.546;2023-05-07T13:00:42;6.50;;;3.95;;
54452;SDS011;40363;52.270;10.546;2023-05-07T13:03:09;6.20;;;4.30;;
54452;SDS011;40363;52.270;10.546;2023-05-07T13:05:36;6.53;;;4.65;;
54452;SDS011;40363;52.270;10.546;2023-05-07T13:08:03;5.85;;;3.50;;
54452;SDS011;40363;52.270;10.546;2023-05-07T13:10:30;5.80;;;4.35;;
54452;SDS011;40363;52.270;10.546;2023-05-07T13:12:57;6.25;;;4.10;;
54452;SDS011;40363;52.270;10.546;2023-05-07T13:15:24;5.18;;;4.22;;
54452;SDS011;40363;52.270;10.546;2023-05-07T13:17:53;6.57;;;4.47;;
54452;SDS011;40363;52.270;10.546;2023-05-07T13:20:20;8.68;;;4.85;;
54452;SDS011;40363;52.270;10.546;2023-05-07T13:22:46;6.30;;;3.50;;
54452;SDS011;40363;52.270;10.546;2023-05-07T13:25:13;12.40;;;4.00;;
54452;SDS011;40363;52.270;10.546;2023-05-07T13:27:40;6.40;;;3.63;;
54452;SDS011;40363;52.270;10.546;2023-05-07T13:30:07;4.10;;;3.25;;
54452;SDS011;40363;52.270;10.546;2023-05-07T13:32:33;5.00;;;3.30;;
54452;SDS011;40363;52.270;10.546;2023-05-07T13:35:02;6.68;;;4.07;;
54452;SDS011;40363;52.270;10.546;2023-05-07T13:37:29;6.32;;;4.22;;
54452;SDS011;40363;52.270;10.546;2023-05-07T13:39:56;6.13;;;4.28;;
54452;SDS011;40363;52.270;10.546;2023-05-07T13:42:22;6.05;;;3.63;;
54452;SDS011;40363;52.270;10.546;2023-05-07T13:44:49;5.85;;;4.30;;
54452;SDS011;40363;52.270;10.546;2023-05-07T13:47:16;5.80;;;3.70;;
54452;SDS011;40363;52.270;10.546;2023-05-07T13:49:42;5.90;;;3.47;;
54452;SDS011;40363;52.270;10.546;2023-05-07T13:52:10;5.43;;;3.90;;
54452;SDS011;40363;52.270;10.546;2023-05-07T13:54:37;6.13;;;4.30;;
54452;SDS011;40363;52.270;10.546;2023-05-07T13:57:04;6.78;;;4.05;;
54452;SDS011;40363;52.270;10.546;2023-05-07T13:59:30;5.88;;;3.95;;
54452;SDS011;40363;52.270;10.546;2023-05-07T14:01:57;4.45;;;3.50;;
54452;SDS011;40363;52.270;10.546;2023-05-07T14:04:24;5.43;;;3.70;;
54452;SDS011;40363;52.270;10.546;2023-05-07T14:06:51;5.18;;;3.15;;
54452;SDS011;40363;52.270;10.546;2023-05-07T14:09:19;4.28;;;3.50;;
54452;SDS011;40363;52.270;10.546;2023-05-07T14:11:45;6.80;;;3.88;;
54452;SDS011;40363;52.270;10.546;2023-05-07T14:14:16;5.95;;;3.60;;
54452;SDS011;40363;52.270;10.546;2023-05-07T14:16:42;4.45;;;3.55;;
54452;SDS011;40363;52.270;10.546;2023-05-07T14:19:09;7.07;;;3.53;;
54452;SDS011;40363;52.270;10.546;2023-05-07T14:21:36;6.13;;;4.00;;
54452;SDS011;40363;52.270;10.546;2023-05-07T14:24:03;5.82;;;4.05;;
54452;SDS011;40363;52.270;10.546;2023-05-07T14:26:31;4.95;;;3.38;;
54452;SDS011;40363;52.270;10.546;2023-05-07T14:28:57;5.25;;;4.07;;
54452;SDS011;40363;52.270;10.546;2023-05-07T14:31:24;5.70;;;3.85;;
54452;SDS011;40363;52.270;10.546;2023-05-07T14:33:51;4.43;;;3.67;;
54452;SDS011;40363;52.270;10.546;2023-05-07T14:36:18;5.38;;;3.83;;
54452;SDS011;40363;52.270;10.546;2023-05-07T14:38:48;6.22;;;4.63;;
54452;SDS011;40363;52.270;10.546;2023-05-07T14:41:14;7.03;;;4.47;;
54452;SDS011;40363;52.270;10.546;2023-05-07T14:43:42;4.43;;;3.70;;
54452;SDS011;40363;52.270;10.546;2023-05-07T14:46:14;10.05;;;4.10;;